Terminal Aerodrome Forecast
Issued by NWS Greer, SC

Home | Current Version | Previous Version | Text Only | Print | Product List | Glossary On
Versions: 1 2 3 4 5 6 7 8 9 10 11 12 13
000
FTUS42 KGSP 192320
TAFGSP
TAF
KGSP 192320Z 2000/2024 32003KT P6SM SKC
     FM201400 04004KT P6SM FEW250
     FM201900 11004KT P6SM FEW250=

USA.gov is the U.S. government's official web portal to all federal, state and local government web resources and services.